Rankin, Michigan
Current Conditions -  °F | °C
As of 9:53 AM on Saturday 25 Oct 2014 (Local Time) from KFNT Reporting Station
Haze Haze  
Wind Chill: 14°   Ceiling: 1100
Heat Index: 14°   Visibility: 5mi
Dew Point: 11°   Wind: 9mph
Humidity: 81%   Direction: 260°W
Pressure: 29.8"   Gusts: NA
Location:  42.9382°N, 83.8244°W
Report Text: KFNT 251353Z 26008KT 5SM HZ OVC011 14/11 A2980 RMK AO2 SLP091 T01390106
Loading
Personal Weather Stations






























Interactive Weather Map
Tropical Storm Tracking
New forecast layout! Learn more

10-Day Weather Forecast

Advertisements
Track Severe Weather on mobile